CST,Max TemperatureF,Mean TemperatureF,Min TemperatureF,Max Dew PointF,MeanDew PointF,Min DewpointF,Max Humidity, Mean Humidity, Min Humidity, Max Sea Level PressureIn, Mean Sea Level PressureIn, Min Sea Level PressureIn, Max VisibilityMiles, Mean VisibilityMiles, Min VisibilityMiles, Max Wind SpeedMPH, Mean Wind SpeedMPH, Max Gust SpeedMPH,PrecipitationIn, CloudCover, Events, WindDirDegrees
2012-1-1,47,39,30,36,20,8,69,47,25,30.60,30.39,29.99,10,10,10,32,17,39,0.01,1,,313
2012-1-2,38,25,11,12,6,-2,76,48,19,30.69,30.62,30.57,10,10,10,23,10,31,0.00,0,,315
2012-1-3,50,30,10,22,14,6,84,54,24,30.54,30.28,30.06,10,10,10,21,7,29,0.00,0,,167
2012-1-4,54,38,22,28,22,19,85,56,26,30.30,30.22,30.08,10,10,4,14,7,17,0.00,0,,314
2012-1-5,67,46,24,33,28,23,92,57,22,30.18,30.01,29.83,10,10,10,15,5,21,0.00,0,,230
2012-1-6,58,46,33,33,29,24,75,54,32,30.07,29.87,29.77,10,10,10,20,8,24,0.00,0,,289
2012-1-7,50,34,17,25,21,15,92,62,31,30.26,30.18,30.08,10,10,8,9,4,12,0.00,0,,8
2012-1-8,48,34,20,28,25,19,92,69,45,30.35,30.30,30.27,10,10,9,10,5,15,0.00,4,,43
2012-1-9,53,34,15,29,20,12,92,64,35,30.33,30.23,30.12,10,9,6,13,3,15,0.00,0,,269
2012-1-10,56,37,17,28,21,15,92,60,27,30.12,29.96,29.76,10,10,5,10,2,14,0.00,0,,161
2012-1-11,49,34,18,32,23,16,92,73,53,29.99,29.81,29.66,10,7,2,35,13,41,T,5,Snow,333
2012-1-12,26,21,16,17,9,4,68,59,50,30.10,30.01,29.95,10,8,1,32,19,43,T,7,Snow,321
2012-1-13,35,23,10,14,4,-1,63,45,26,30.19,30.12,30.00,10,10,10,18,7,23,0.00,1,,301
2012-1-14,46,32,18,26,21,15,84,61,37,30.25,30.12,29.92,10,10,10,32,11,43,0.00,0,,315
2012-1-15,65,42,18,31,23,15,84,51,18,30.22,29.99,29.80,10,10,10,28,13,39,0.00,0,,159
2012-1-16,61,48,34,45,33,27,92,60,27,29.78,29.71,29.65,10,10,2,24,12,31,T,1,,247
2012-1-17,34,21,7,24,12,3,91,67,43,30.44,30.23,29.84,10,10,10,30,14,38,T,4,,330
2012-1-18,44,24,3,18,10,1,91,58,24,30.40,30.14,29.89,10,10,7,23,8,30,0.00,0,,188
2012-1-19,32,24,15,19,10,3,84,60,35,30.13,30.03,29.88,10,10,10,17,8,22,0.00,1,,30
2012-1-20,30,22,13,18,10,4,67,60,53,30.22,29.98,29.83,10,10,9,20,9,26,0.00,3,,38
2012-1-21,31,21,10,22,11,4,88,72,55,30.24,30.11,29.80,10,10,6,18,9,22,0.00,4,,86
2012-1-22,61,44,26,46,35,23,92,73,53,29.77,29.53,29.36,10,8,3,29,16,39,T,7,,190
2012-1-23,49,34,18,32,24,15,84,59,34,30.09,29.90,29.65,10,10,9,29,11,38,0.00,4,,291
2012-1-24,53,34,14,27,22,13,92,62,32,30.24,30.18,30.10,10,10,8,17,6,21,0.00,1,,98
2012-1-25,53,39,24,36,29,23,89,70,50,30.21,30.08,29.96,10,10,8,13,4,15,0.00,3,,103
2012-1-26,58,38,18,30,21,17,96,61,26,29.98,29.92,29.85,10,7,2,29,10,37,0.00,0,,321
2012-1-27,45,31,16,32,24,14,85,69,53,30.25,30.01,29.86,10,10,9,23,7,29,T,3,Rain,355
2012-1-28,49,34,18,20,14,6,84,51,18,30.40,30.31,30.26,10,10,10,26,9,35,0.00,0,,283
2012-1-29,53,34,15,29,14,9,74,47,19,30.31,30.21,30.07,10,10,10,13,5,22,0.00,2,,184
2012-1-30,69,53,37,41,32,29,65,46,26,30.05,29.94,29.82,10,10,10,24,11,32,0.00,0,,197
2012-1-31,66,47,27,49,39,23,83,55,27,30.09,29.90,29.81,10,10,9,21,11,29,0.00,2,,258